createdAt,value
2018-12-01T00:00:34.776Z,79.44
2018-12-01T00:03:02.708Z,84.13
2018-12-01T00:05:30.708Z,79.84
2018-12-01T00:07:58.625Z,80.33
2018-12-01T00:10:26.526Z,81.01
2018-12-01T00:12:54.525Z,80.59
2018-12-01T00:15:24.623Z,80.13
2018-12-01T00:17:52.813Z,82.03
2018-12-01T00:20:22.929Z,80.57
2018-12-01T00:22:50.787Z,81.67
2018-12-01T00:25:18.684Z,78.46
2018-12-01T00:27:46.569Z,80.39
2018-12-01T00:30:16.279Z,80.03
2018-12-01T00:32:44.986Z,80.61
2018-12-01T00:35:13.265Z,80.35
2018-12-01T00:37:41.164Z,79.82
2018-12-01T00:40:23.647Z,80.89
2018-12-01T00:42:51.849Z,79.51
2018-12-01T00:45:20.640Z,80.88
2018-12-01T00:47:50.349Z,80.48
2018-12-01T00:50:19.352Z,80.63
2018-12-01T00:52:48.129Z,80.33
2018-12-01T00:55:16.768Z,79.36
2018-12-01T00:57:44.580Z,78.67
2018-12-01T01:00:21.808Z,78.79
2018-12-01T01:02:51.929Z,78.79
2018-12-01T01:05:20.670Z,79.20
2018-12-01T01:07:48.541Z,79.61
2018-12-01T01:10:16.369Z,82.39
2018-12-01T01:12:44.125Z,81.38
2018-12-01T01:15:11.915Z,79.17
2018-12-01T01:17:39.669Z,78.57
2018-12-01T01:20:10.879Z,78.40
2018-12-01T01:22:38.677Z,78.75
2018-12-01T01:25:07.558Z,79.72
2018-12-01T01:27:35.279Z,79.62
2018-12-01T01:30:04.838Z,81.87
2018-12-01T01:32:32.614Z,80.67
2018-12-01T01:35:00.344Z,80.72
2018-12-01T01:37:28.120Z,80.95
2018-12-01T01:39:55.866Z,81.03
2018-12-01T01:42:23.609Z,83.19
2018-12-01T01:44:51.942Z,79.24
2018-12-01T01:47:19.706Z,75.95
2018-12-01T01:49:47.432Z,77.91
2018-12-01T01:52:15.164Z,77.00
2018-12-01T01:54:44.308Z,76.80
2018-12-01T01:57:12.676Z,77.43
2018-12-01T01:59:40.393Z,77.66
2018-12-01T02:02:08.134Z,78.96
2018-12-01T02:04:35.864Z,81.19
2018-12-01T02:07:03.664Z,81.50
2018-12-01T02:09:31.410Z,83.30
2018-12-01T02:11:59.125Z,80.82
2018-12-01T02:14:26.916Z,80.84
2018-12-01T02:16:54.850Z,80.78
2018-12-01T02:19:22.590Z,80.44
2018-12-01T02:21:50.360Z,80.52
2018-12-01T02:24:18.100Z,80.56
2018-12-01T02:26:45.847Z,80.64
2018-12-01T02:29:13.640Z,79.85
2018-12-01T02:31:41.392Z,80.66
2018-12-01T02:34:09.145Z,79.67
2018-12-01T02:36:36.990Z,80.68
2018-12-01T02:39:07.798Z,78.93
2018-12-01T02:41:35.524Z,79.15
2018-12-01T02:44:14.405Z,81.32
2018-12-01T02:46:53.373Z,77.66
2018-12-01T02:49:21.113Z,81.70
2018-12-01T02:51:48.824Z,80.10
2018-12-01T02:54:16.571Z,77.44
2018-12-01T02:56:44.302Z,77.28
2018-12-01T02:59:12.050Z,76.99
2018-12-01T03:01:39.816Z,77.30
2018-12-01T03:04:07.565Z,81.19
2018-12-01T03:06:35.296Z,77.42
2018-12-01T03:09:03.978Z,79.46
2018-12-01T03:11:31.707Z,78.20
2018-12-01T03:13:59.460Z,76.77
2018-12-01T03:16:27.213Z,77.96
2018-12-01T03:18:54.946Z,76.82
2018-12-01T03:21:22.682Z,77.04
2018-12-01T03:23:50.440Z,77.16
2018-12-01T03:26:18.180Z,77.00
2018-12-01T03:28:45.954Z,80.82
2018-12-01T03:31:13.797Z,75.94
2018-12-01T03:33:41.487Z,77.39
2018-12-01T03:36:09.244Z,76.78
2018-12-01T03:38:36.964Z,78.51
2018-12-01T03:41:04.820Z,77.13
2018-12-01T03:43:32.565Z,78.13
2018-12-01T03:46:00.322Z,77.83
2018-12-01T03:48:28.036Z,77.80
2018-12-01T03:50:55.782Z,79.26
2018-12-01T03:53:23.520Z,78.48
2018-12-01T03:55:51.256Z,78.45
2018-12-01T03:58:18.972Z,78.73
2018-12-01T04:00:46.714Z,79.55
2018-12-01T04:03:14.600Z,79.29
2018-12-01T04:05:42.438Z,79.58
2018-12-01T04:08:10.204Z,78.87
2018-12-01T04:10:37.951Z,80.55
2018-12-01T04:13:05.895Z,78.90
2018-12-01T04:15:33.679Z,78.57
2018-12-01T04:18:01.403Z,79.52
2018-12-01T04:20:29.141Z,79.62
2018-12-01T04:22:56.888Z,82.10
2018-12-01T04:25:24.655Z,80.38
2018-12-01T04:27:52.472Z,79.69
2018-12-01T04:30:21.176Z,79.51
2018-12-01T04:32:49.014Z,79.09
2018-12-01T04:35:18.442Z,79.19
2018-12-01T04:37:48.097Z,78.33
2018-12-01T04:40:15.920Z,81.30
2018-12-01T04:42:44.337Z,79.08
2018-12-01T04:45:12.192Z,78.09
2018-12-01T04:47:39.936Z,82.07
2018-12-01T04:50:09.168Z,77.22
2018-12-01T04:52:36.949Z,79.33
2018-12-01T04:55:06.114Z,77.09
2018-12-01T04:57:33.832Z,76.82
2018-12-01T05:00:01.595Z,76.84
2018-12-01T05:02:29.370Z,77.07
2018-12-01T05:04:57.092Z,79.58
2018-12-01T05:07:24.826Z,75.85
2018-12-01T05:09:52.575Z,77.32
2018-12-01T05:12:20.283Z,77.39
2018-12-01T05:14:47.994Z,76.88
2018-12-01T05:17:15.767Z,77.51
2018-12-01T05:19:43.494Z,78.42
2018-12-01T05:22:11.248Z,78.50
2018-12-01T05:24:38.988Z,79.42
2018-12-01T05:27:06.760Z,79.67
2018-12-01T05:29:34.468Z,80.62
2018-12-01T05:32:02.192Z,80.19
2018-12-01T05:34:29.921Z,81.18
2018-12-01T05:36:57.690Z,81.43
2018-12-01T05:39:25.626Z,81.27
2018-12-01T05:41:53.358Z,81.53
2018-12-01T05:44:21.097Z,81.59
2018-12-01T05:46:48.831Z,82.09
2018-12-01T05:49:16.682Z,82.39
2018-12-01T05:51:44.424Z,82.43
2018-12-01T05:54:12.551Z,82.18
2018-12-01T05:56:41.940Z,82.80
2018-12-01T05:59:09.686Z,82.00
2018-12-01T06:01:37.422Z,83.09
2018-12-01T06:04:05.468Z,83.48
2018-12-01T06:06:33.375Z,81.96
2018-12-01T06:09:01.120Z,81.89
2018-12-01T06:11:28.853Z,82.49
2018-12-01T06:13:56.616Z,82.78
2018-12-01T06:16:24.359Z,83.59
2018-12-01T06:18:54.897Z,82.65
2018-12-01T06:21:22.643Z,82.08
2018-12-01T06:23:50.364Z,82.63
2018-12-01T06:26:18.098Z,81.34
2018-12-01T06:28:45.826Z,81.31
2018-12-01T06:31:13.609Z,81.71
2018-12-01T06:33:41.334Z,81.96
2018-12-01T06:36:09.108Z,82.12
2018-12-01T06:38:36.846Z,83.15
2018-12-01T06:41:04.664Z,82.29
2018-12-01T06:43:32.414Z,81.57
2018-12-01T06:46:00.158Z,81.44
2018-12-01T06:48:27.883Z,81.46
2018-12-01T06:50:55.600Z,81.43
2018-12-01T06:53:23.323Z,81.63
2018-12-01T06:55:51.043Z,78.98
2018-12-01T06:58:18.780Z,78.15
2018-12-01T07:00:46.510Z,78.51
2018-12-01T07:03:14.240Z,78.03
2018-12-01T07:05:41.965Z,78.69
2018-12-01T07:08:09.709Z,79.18
2018-12-01T07:10:37.432Z,79.23
2018-12-01T07:13:06.015Z,78.33
2018-12-01T07:15:34.994Z,78.24
2018-12-01T07:18:12.665Z,77.26
2018-12-01T07:20:41.078Z,78.16
2018-12-01T07:23:08.989Z,78.58
2018-12-01T07:25:36.716Z,79.30
2018-12-01T07:28:04.698Z,76.64
2018-12-01T07:30:32.483Z,75.61
2018-12-01T07:33:00.219Z,76.47
2018-12-01T07:35:27.960Z,76.14
2018-12-01T07:37:55.717Z,77.48
2018-12-01T07:40:23.472Z,77.15
2018-12-01T07:42:51.212Z,75.69
2018-12-01T07:45:18.990Z,75.00
2018-12-01T07:47:46.701Z,77.16
2018-12-01T07:50:15.566Z,74.08
2018-12-01T07:52:51.599Z,75.47
2018-12-01T07:55:19.427Z,75.52
2018-12-01T07:57:47.169Z,77.88
2018-12-01T08:00:15.826Z,77.15
2018-12-01T08:02:46.448Z,76.60
2018-12-01T08:05:14.192Z,76.70
2018-12-01T08:07:41.954Z,76.66
2018-12-01T08:10:13.597Z,77.94
2018-12-01T08:12:41.354Z,76.98
2018-12-01T08:15:11.258Z,77.63
2018-12-01T08:17:38.980Z,75.88
2018-12-01T08:20:08.857Z,76.14
2018-12-01T08:22:36.624Z,74.11
2018-12-01T08:25:05.350Z,75.28
2018-12-01T08:27:33.094Z,75.56
2018-12-01T08:30:00.832Z,73.99
2018-12-01T08:32:28.552Z,73.31
2018-12-01T08:34:56.290Z,74.73
2018-12-01T08:37:24.046Z,74.20
2018-12-01T08:39:51.800Z,74.13
2018-12-01T08:42:19.555Z,74.80
2018-12-01T08:44:47.308Z,76.49
2018-12-01T08:47:15.055Z,74.14
2018-12-01T08:49:42.793Z,76.34
2018-12-01T08:52:10.516Z,73.01
2018-12-01T08:54:38.260Z,76.68
2018-12-01T08:57:06.609Z,72.79
2018-12-01T08:59:34.366Z,73.34
2018-12-01T09:02:02.100Z,72.65
2018-12-01T09:04:29.880Z,76.18
2018-12-01T09:06:57.612Z,73.30
2018-12-01T09:09:25.350Z,72.53
2018-12-01T09:11:53.102Z,72.67
2018-12-01T09:14:20.965Z,73.12
2018-12-01T09:16:48.712Z,72.29
2018-12-01T09:19:16.447Z,72.63
2018-12-01T09:21:44.190Z,72.23
2018-12-01T09:24:13.061Z,72.26
2018-12-01T09:26:39.774Z,70.82
2018-12-01T09:29:07.528Z,71.31
2018-12-01T09:31:35.244Z,71.05
2018-12-01T09:34:02.984Z,71.30
2018-12-01T09:36:30.748Z,72.13
2018-12-01T09:38:58.513Z,70.68
2018-12-01T09:41:26.333Z,70.95
2018-12-01T09:43:54.064Z,70.43
2018-12-01T09:46:21.798Z,72.29
2018-12-01T09:48:49.535Z,72.35
2018-12-01T09:51:17.283Z,70.37
2018-12-01T09:53:45.020Z,70.09
2018-12-01T09:56:12.767Z,71.09
2018-12-01T09:58:40.516Z,71.63
2018-12-01T10:01:08.278Z,71.65
2018-12-01T10:03:36.024Z,74.51
2018-12-01T10:06:03.797Z,68.12
2018-12-01T10:08:31.541Z,69.73
2018-12-01T10:10:59.328Z,74.03
2018-12-01T10:13:27.060Z,68.13
2018-12-01T10:15:54.796Z,67.56
2018-12-01T10:18:22.528Z,70.21
2018-12-01T10:20:50.267Z,70.12
2018-12-01T10:23:18.008Z,69.07
2018-12-01T10:25:45.753Z,69.04
2018-12-01T10:28:13.510Z,69.42
2018-12-01T10:30:41.288Z,67.68
2018-12-01T10:33:09.050Z,68.31
2018-12-01T10:35:37.226Z,69.65
2018-12-01T10:38:13.533Z,70.44
2018-12-01T10:40:41.300Z,69.70
2018-12-01T10:43:09.057Z,70.29
2018-12-01T10:45:36.822Z,71.38
2018-12-01T10:48:05.423Z,73.88
2018-12-01T10:50:33.160Z,69.08
2018-12-01T10:53:00.954Z,68.97
2018-12-01T10:55:29.760Z,69.06
2018-12-01T10:58:05.917Z,74.23
2018-12-01T11:00:39.185Z,71.81
2018-12-01T11:03:12.906Z,69.95
2018-12-01T11:05:40.736Z,67.40
2018-12-01T11:08:09.463Z,66.17
2018-12-01T11:10:37.228Z,72.71
2018-12-01T11:13:04.969Z,68.41
2018-12-01T11:15:34.303Z,68.32
2018-12-01T11:18:02.088Z,68.03
2018-12-01T11:20:29.860Z,74.62
2018-12-01T11:22:58.160Z,70.98
2018-12-01T11:25:25.486Z,69.86
2018-12-01T11:27:53.272Z,70.86
2018-12-01T11:30:21.020Z,70.56
2018-12-01T11:32:48.910Z,71.94
2018-12-01T11:35:16.666Z,78.71
2018-12-01T11:37:45.419Z,70.13
2018-12-01T11:40:15.338Z,69.47
2018-12-01T11:42:42.318Z,68.47
2018-12-01T11:45:11.555Z,77.74
2018-12-01T11:47:39.360Z,69.69
2018-12-01T11:50:09.747Z,68.59
2018-12-01T11:52:37.529Z,70.41
2018-12-01T11:55:08.938Z,69.47
2018-12-01T11:57:36.661Z,68.86
2018-12-01T12:00:06.670Z,67.94
2018-12-01T12:02:34.556Z,69.32
2018-12-01T12:05:02.388Z,69.82
2018-12-01T12:07:41.251Z,68.83
2018-12-01T12:10:09.031Z,69.57
2018-12-01T12:12:36.774Z,78.57
2018-12-01T12:15:06.122Z,71.04
2018-12-01T12:17:33.857Z,77.20
2018-12-01T12:20:01.748Z,71.98
2018-12-01T12:22:29.592Z,70.96
2018-12-01T12:24:57.377Z,70.11
2018-12-01T12:27:25.157Z,72.89
2018-12-01T12:29:52.901Z,71.07
2018-12-01T12:32:20.688Z,71.56
2018-12-01T12:34:48.441Z,73.00
2018-12-01T12:37:16.202Z,76.09
2018-12-01T12:39:43.928Z,74.04
2018-12-01T12:42:11.718Z,73.82
2018-12-01T12:44:39.444Z,73.29
2018-12-01T12:47:07.172Z,71.75
2018-12-01T12:49:34.937Z,73.56
2018-12-01T12:52:02.688Z,74.50
2018-12-01T12:54:30.426Z,73.46
2018-12-01T12:56:58.144Z,73.54
2018-12-01T12:59:25.956Z,73.77
2018-12-01T13:01:53.671Z,73.67
2018-12-01T13:04:21.388Z,74.09
2018-12-01T13:06:49.128Z,74.18
2018-12-01T13:09:16.866Z,74.11
2018-12-01T13:11:44.610Z,73.97
2018-12-01T13:14:12.337Z,74.52
2018-12-01T13:16:40.073Z,74.73
2018-12-01T13:19:07.866Z,75.36
2018-12-01T13:21:35.652Z,75.30
2018-12-01T13:24:03.449Z,75.69
2018-12-01T13:26:31.188Z,75.31
2018-12-01T13:28:58.941Z,75.38
2018-12-01T13:31:26.730Z,77.24
2018-12-01T13:33:54.496Z,76.40
2018-12-01T13:36:22.255Z,78.15
2018-12-01T13:38:50.125Z,75.72
2018-12-01T13:41:17.925Z,76.50
2018-12-01T13:43:45.700Z,76.99
2018-12-01T13:46:13.447Z,78.89
2018-12-01T13:48:41.229Z,78.30
2018-12-01T13:51:08.993Z,77.74
2018-12-01T13:53:36.726Z,77.55
2018-12-01T13:56:04.691Z,77.75
2018-12-01T13:58:32.447Z,77.70
2018-12-01T14:01:00.171Z,77.70
2018-12-01T14:03:27.972Z,78.42
2018-12-01T14:05:55.699Z,78.96
2018-12-01T14:08:23.470Z,79.70
2018-12-01T14:10:51.517Z,79.49
2018-12-01T14:13:19.231Z,78.88
2018-12-01T14:15:47.082Z,79.36
2018-12-01T14:18:14.957Z,79.75
2018-12-01T14:20:42.858Z,79.32
2018-12-01T14:23:10.619Z,82.45
2018-12-01T14:25:38.403Z,81.09
2018-12-01T14:28:10.599Z,80.90
2018-12-01T14:30:38.414Z,81.40
2018-12-01T14:33:07.202Z,81.47
2018-12-01T14:35:36.074Z,81.60
2018-12-01T14:38:13.243Z,81.36
2018-12-01T14:40:42.234Z,81.52
2018-12-01T14:43:10.003Z,82.79
2018-12-01T14:45:38.054Z,83.79
2018-12-01T14:48:06.342Z,83.42
2018-12-01T14:50:34.100Z,83.14
2018-12-01T14:53:01.852Z,84.37
2018-12-01T14:55:29.652Z,84.44
2018-12-01T14:57:57.414Z,84.33
2018-12-01T15:00:25.907Z,85.38
2018-12-01T15:02:54.840Z,85.67
2018-12-01T15:05:22.915Z,85.38
2018-12-01T15:07:50.681Z,85.10
2018-12-01T15:10:20.572Z,85.64
2018-12-01T15:12:48.430Z,86.66
2018-12-01T15:15:17.839Z,86.03
2018-12-01T15:17:45.240Z,87.41
2018-12-01T15:20:16.939Z,86.92
2018-12-01T15:22:45.686Z,87.58
2018-12-01T15:25:15.400Z,87.23
2018-12-01T15:27:43.168Z,87.97
2018-12-01T15:30:14.112Z,88.09
2018-12-01T15:32:42.653Z,88.34
2018-12-01T15:35:11.938Z,88.68
2018-12-01T15:37:40.394Z,88.53
2018-12-01T15:40:11.261Z,87.91
2018-12-01T15:42:39.010Z,88.09
2018-12-01T15:45:08.659Z,89.39
2018-12-01T15:47:36.452Z,88.60
2018-12-01T15:50:05.389Z,88.91
2018-12-01T15:52:33.137Z,89.07
2018-12-01T15:55:00.959Z,89.69
2018-12-01T15:57:28.708Z,89.34
2018-12-01T15:59:56.479Z,90.09
2018-12-01T16:02:24.242Z,90.95
2018-12-01T16:04:52.000Z,90.38
2018-12-01T16:07:19.764Z,91.17
2018-12-01T16:09:47.502Z,91.25
2018-12-01T16:12:15.259Z,91.53
2018-12-01T16:14:42.999Z,90.34
2018-12-01T16:17:10.746Z,91.03
2018-12-01T16:19:38.532Z,90.81
2018-12-01T16:22:06.304Z,90.42
2018-12-01T16:24:34.153Z,89.13
2018-12-01T16:27:01.906Z,87.58
2018-12-01T16:29:29.689Z,87.70
2018-12-01T16:31:57.418Z,87.65
2018-12-01T16:34:25.149Z,87.62
2018-12-01T16:36:52.912Z,87.61
2018-12-01T16:39:20.696Z,87.34
2018-12-01T16:41:48.768Z,87.32
2018-12-01T16:44:16.572Z,87.95
2018-12-01T16:46:44.322Z,88.12
2018-12-01T16:49:12.102Z,88.39
2018-12-01T16:51:39.864Z,87.07
2018-12-01T16:54:07.626Z,88.27
2018-12-01T16:56:35.501Z,88.07
2018-12-01T16:59:03.301Z,88.28
2018-12-01T17:01:31.035Z,89.05
2018-12-01T17:03:58.798Z,87.44
2018-12-01T17:06:26.540Z,87.60
2018-12-01T17:08:55.598Z,90.08
2018-12-01T17:11:23.517Z,88.96
2018-12-01T17:13:51.326Z,89.38
2018-12-01T17:16:19.140Z,90.97
2018-12-01T17:18:46.860Z,91.01
2018-12-01T17:21:14.683Z,91.48
2018-12-01T17:23:42.430Z,92.43
2018-12-01T17:26:10.271Z,91.72
2018-12-01T17:28:38.036Z,90.33
2018-12-01T17:31:06.587Z,90.59
2018-12-01T17:33:34.463Z,90.41
2018-12-01T17:36:02.271Z,90.17
2018-12-01T17:38:30.104Z,90.22
2018-12-01T17:41:10.224Z,90.88
2018-12-01T17:43:41.320Z,90.80
2018-12-01T17:46:09.065Z,91.86
2018-12-01T17:48:37.014Z,92.48
2018-12-01T17:51:04.775Z,92.16
2018-12-01T17:53:32.523Z,93.54
2018-12-01T17:56:00.391Z,93.95
2018-12-01T17:58:28.270Z,93.89
2018-12-01T18:00:56.042Z,94.49
2018-12-01T18:03:23.785Z,94.71
2018-12-01T18:05:51.562Z,94.96
2018-12-01T18:08:21.308Z,94.71
2018-12-01T18:10:51.472Z,95.53
2018-12-01T18:13:19.372Z,96.31
2018-12-01T18:15:47.154Z,95.71
2018-12-01T18:18:14.864Z,96.91
2018-12-01T18:20:42.654Z,96.91
2018-12-01T18:23:12.425Z,96.77
2018-12-01T18:25:45.627Z,96.34
2018-12-01T18:28:15.756Z,96.40
2018-12-01T18:30:43.509Z,96.81
2018-12-01T18:33:16.803Z,97.30
2018-12-01T18:35:44.673Z,97.97
2018-12-01T18:38:12.529Z,97.49
2018-12-01T18:40:40.374Z,98.05
2018-12-01T18:43:08.695Z,98.40
2018-12-01T18:45:37.288Z,98.46
2018-12-01T18:48:05.146Z,98.53
2018-12-01T18:50:32.932Z,99.79
2018-12-01T18:53:02.262Z,99.91
2018-12-01T18:55:31.571Z,99.66
2018-12-01T18:57:59.323Z,99.91
2018-12-01T19:00:30.872Z,100.00
2018-12-01T19:02:58.600Z,100.00
2018-12-01T19:05:26.343Z,99.12
2018-12-01T19:07:54.078Z,98.50
2018-12-01T19:10:21.822Z,100.00
2018-12-01T19:12:49.566Z,100.00
2018-12-01T19:15:17.838Z,100.00
2018-12-01T19:17:46.898Z,100.00
2018-12-01T19:20:15.590Z,100.00
2018-12-01T19:22:43.638Z,100.00
2018-12-01T19:25:16.785Z,100.00
2018-12-01T19:27:44.674Z,100.00
2018-12-01T19:30:13.403Z,100.00
2018-12-01T19:32:41.837Z,100.00
2018-12-01T19:35:11.862Z,100.00
2018-12-01T19:37:39.599Z,100.00
2018-12-01T19:40:13.119Z,100.00
2018-12-01T19:42:40.886Z,100.00
2018-12-01T19:45:09.073Z,100.00
2018-12-01T19:47:36.884Z,100.00
2018-12-01T19:50:08.815Z,100.00
2018-12-01T19:52:36.550Z,100.00
2018-12-01T19:55:05.608Z,100.00
2018-12-01T19:57:33.384Z,100.00
2018-12-01T20:00:01.124Z,100.00
2018-12-01T20:02:28.888Z,100.00
2018-12-01T20:04:56.640Z,100.00
2018-12-01T20:07:24.372Z,100.00
2018-12-01T20:09:52.107Z,100.00
2018-12-01T20:12:19.862Z,100.00
2018-12-01T20:14:47.686Z,100.00
2018-12-01T20:17:15.429Z,100.00
2018-12-01T20:19:43.193Z,100.00
2018-12-01T20:22:11.103Z,100.00
2018-12-01T20:24:38.838Z,100.00
2018-12-01T20:27:06.805Z,100.00
2018-12-01T20:29:34.585Z,100.00
2018-12-01T20:32:02.337Z,100.00
2018-12-01T20:34:30.066Z,100.00
2018-12-01T20:37:03.533Z,100.00
2018-12-01T20:39:33.410Z,100.00
2018-12-01T20:42:01.220Z,100.00
2018-12-01T20:44:28.974Z,100.00
2018-12-01T20:46:56.721Z,100.00
2018-12-01T20:49:24.457Z,100.00
2018-12-01T20:51:52.210Z,100.00
2018-12-01T20:54:37.813Z,100.00
2018-12-01T20:57:12.818Z,100.00
2018-12-01T20:59:40.583Z,100.00
2018-12-01T21:02:08.366Z,100.00
2018-12-01T21:04:36.100Z,100.00
2018-12-01T21:07:03.886Z,100.00
2018-12-01T21:09:31.659Z,100.00
2018-12-01T21:12:00.008Z,100.00
2018-12-01T21:14:27.771Z,100.00
2018-12-01T21:16:55.520Z,100.00
2018-12-01T21:19:23.247Z,100.00
2018-12-01T21:21:51.007Z,100.00
2018-12-01T21:24:18.839Z,100.00
2018-12-01T21:26:46.591Z,100.00
2018-12-01T21:29:14.343Z,100.00
2018-12-01T21:31:42.150Z,100.00
2018-12-01T21:34:09.890Z,100.00
2018-12-01T21:36:37.662Z,100.00
2018-12-01T21:39:07.567Z,100.00
2018-12-01T21:41:35.391Z,100.00
2018-12-01T21:44:03.469Z,100.00
2018-12-01T21:46:31.240Z,100.00
2018-12-01T21:48:59.042Z,100.00
2018-12-01T21:51:26.816Z,100.00
2018-12-01T21:53:54.583Z,100.00
2018-12-01T21:56:22.328Z,100.00
2018-12-01T21:58:50.356Z,100.00
2018-12-01T22:01:18.107Z,100.00
2018-12-01T22:03:45.882Z,100.00
2018-12-01T22:06:13.636Z,100.00
2018-12-01T22:08:41.431Z,100.00
2018-12-01T22:11:09.788Z,100.00
2018-12-01T22:13:38.524Z,100.00
2018-12-01T22:16:07.261Z,100.00
2018-12-01T22:18:35.014Z,100.00
2018-12-01T22:21:02.755Z,100.00
2018-12-01T22:23:30.504Z,100.00
2018-12-01T22:25:58.268Z,100.00
2018-12-01T22:28:26.021Z,100.00
2018-12-01T22:30:53.817Z,100.00
2018-12-01T22:33:23.930Z,100.00
2018-12-01T22:35:51.757Z,100.00
2018-12-01T22:38:19.492Z,100.00
2018-12-01T22:40:47.426Z,100.00
2018-12-01T22:43:15.202Z,100.00
2018-12-01T22:45:42.928Z,100.00
2018-12-01T22:48:13.193Z,100.00
2018-12-01T22:50:42.434Z,100.00
2018-12-01T22:53:10.205Z,100.00
2018-12-01T22:55:39.458Z,100.00
2018-12-01T22:58:08.566Z,100.00
2018-12-01T23:00:50.338Z,100.00
2018-12-01T23:03:21.075Z,100.00
2018-12-01T23:05:48.827Z,100.00
2018-12-01T23:08:22.448Z,100.00
2018-12-01T23:10:50.573Z,100.00
2018-12-01T23:13:18.397Z,100.00
2018-12-01T23:15:46.168Z,100.00
2018-12-01T23:18:15.457Z,100.00
2018-12-01T23:20:44.512Z,100.00
2018-12-01T23:23:12.293Z,100.00
2018-12-01T23:25:40.426Z,100.00
2018-12-01T23:28:08.344Z,100.00
2018-12-01T23:30:36.598Z,100.00
2018-12-01T23:33:08.707Z,100.00
2018-12-01T23:35:36.915Z,100.00
2018-12-01T23:38:04.992Z,100.00
2018-12-01T23:40:32.749Z,100.00
2018-12-01T23:43:00.503Z,100.00
2018-12-01T23:45:28.314Z,100.00
2018-12-01T23:47:56.052Z,100.00
2018-12-01T23:50:24.946Z,100.00
2018-12-01T23:52:54.684Z,100.00
2018-12-01T23:55:22.908Z,100.00
2018-12-01T23:57:50.641Z,100.00
